sensor_id;sensor_type;location;lat;lon;timestamp;P1;durP1;ratioP1;P2;durP2;ratioP2
9128;SDS011;4599;50.906;6.786;2023-03-12T00:03:06;6.50;;;3.60;;
9128;SDS011;4599;50.906;6.786;2023-03-12T00:07:07;8.80;;;2.70;;
9128;SDS011;4599;50.906;6.786;2023-03-12T00:11:10;6.70;;;2.40;;
9128;SDS011;4599;50.906;6.786;2023-03-12T00:15:14;5.27;;;3.00;;
9128;SDS011;4599;50.906;6.786;2023-03-12T00:19:15;5.97;;;2.50;;
9128;SDS011;4599;50.906;6.786;2023-03-12T00:23:16;4.63;;;2.10;;
9128;SDS011;4599;50.906;6.786;2023-03-12T00:27:18;6.83;;;2.30;;
9128;SDS011;4599;50.906;6.786;2023-03-12T00:31:23;4.13;;;2.20;;
9128;SDS011;4599;50.906;6.786;2023-03-12T00:35:26;4.87;;;2.40;;
9128;SDS011;4599;50.906;6.786;2023-03-12T00:39:28;5.53;;;2.23;;
9128;SDS011;4599;50.906;6.786;2023-03-12T00:43:29;6.43;;;2.60;;
9128;SDS011;4599;50.906;6.786;2023-03-12T00:47:33;4.83;;;2.30;;
9128;SDS011;4599;50.906;6.786;2023-03-12T00:51:34;6.80;;;2.40;;
9128;SDS011;4599;50.906;6.786;2023-03-12T00:55:36;4.30;;;2.63;;
9128;SDS011;4599;50.906;6.786;2023-03-12T00:59:37;9.23;;;2.70;;
9128;SDS011;4599;50.906;6.786;2023-03-12T01:03:40;4.17;;;2.60;;
9128;SDS011;4599;50.906;6.786;2023-03-12T01:07:42;7.37;;;2.53;;
9128;SDS011;4599;50.906;6.786;2023-03-12T01:11:44;4.60;;;2.20;;
9128;SDS011;4599;50.906;6.786;2023-03-12T01:15:46;7.00;;;2.30;;
9128;SDS011;4599;50.906;6.786;2023-03-12T01:19:49;5.77;;;3.00;;
9128;SDS011;4599;50.906;6.786;2023-03-12T01:23:50;4.80;;;2.30;;
9128;SDS011;4599;50.906;6.786;2023-03-12T01:27:53;5.90;;;2.40;;
9128;SDS011;4599;50.906;6.786;2023-03-12T01:31:54;8.23;;;2.70;;
9128;SDS011;4599;50.906;6.786;2023-03-12T01:35:58;6.77;;;3.40;;
9128;SDS011;4599;50.906;6.786;2023-03-12T01:39:59;4.63;;;2.33;;
9128;SDS011;4599;50.906;6.786;2023-03-12T01:44:02;3.67;;;2.50;;
9128;SDS011;4599;50.906;6.786;2023-03-12T01:48:04;6.07;;;2.27;;
9128;SDS011;4599;50.906;6.786;2023-03-12T01:52:08;4.80;;;2.30;;
9128;SDS011;4599;50.906;6.786;2023-03-12T01:56:12;3.97;;;1.93;;
9128;SDS011;4599;50.906;6.786;2023-03-12T02:00:18;6.70;;;2.20;;
9128;SDS011;4599;50.906;6.786;2023-03-12T02:04:22;3.27;;;1.93;;
9128;SDS011;4599;50.906;6.786;2023-03-12T02:08:27;4.80;;;2.07;;
9128;SDS011;4599;50.906;6.786;2023-03-12T02:12:29;4.33;;;1.80;;
9128;SDS011;4599;50.906;6.786;2023-03-12T02:16:31;5.57;;;2.13;;
9128;SDS011;4599;50.906;6.786;2023-03-12T02:20:34;4.07;;;2.30;;
9128;SDS011;4599;50.906;6.786;2023-03-12T02:24:42;6.63;;;2.67;;
9128;SDS011;4599;50.906;6.786;2023-03-12T02:28:49;3.47;;;2.53;;
9128;SDS011;4599;50.906;6.786;2023-03-12T02:32:51;8.57;;;2.77;;
9128;SDS011;4599;50.906;6.786;2023-03-12T02:36:54;5.63;;;2.53;;
9128;SDS011;4599;50.906;6.786;2023-03-12T02:40:56;9.17;;;2.70;;
9128;SDS011;4599;50.906;6.786;2023-03-12T02:45:03;6.20;;;2.53;;
9128;SDS011;4599;50.906;6.786;2023-03-12T02:49:05;6.63;;;2.90;;
9128;SDS011;4599;50.906;6.786;2023-03-12T02:53:08;6.57;;;2.73;;
9128;SDS011;4599;50.906;6.786;2023-03-12T02:57:10;4.40;;;2.83;;
9128;SDS011;4599;50.906;6.786;2023-03-12T03:01:13;7.70;;;3.00;;
9128;SDS011;4599;50.906;6.786;2023-03-12T03:05:15;3.97;;;2.67;;
9128;SDS011;4599;50.906;6.786;2023-03-12T03:09:17;4.80;;;2.17;;
9128;SDS011;4599;50.906;6.786;2023-03-12T03:13:19;7.07;;;2.80;;
9128;SDS011;4599;50.906;6.786;2023-03-12T03:17:22;3.97;;;2.47;;
9128;SDS011;4599;50.906;6.786;2023-03-12T03:21:23;4.97;;;2.57;;
9128;SDS011;4599;50.906;6.786;2023-03-12T03:25:25;6.57;;;2.43;;
9128;SDS011;4599;50.906;6.786;2023-03-12T03:29:27;7.37;;;2.37;;
9128;SDS011;4599;50.906;6.786;2023-03-12T03:33:31;4.20;;;2.30;;
9128;SDS011;4599;50.906;6.786;2023-03-12T03:37:35;6.60;;;2.43;;
9128;SDS011;4599;50.906;6.786;2023-03-12T03:41:36;10.53;;;2.30;;
9128;SDS011;4599;50.906;6.786;2023-03-12T03:45:40;6.27;;;1.90;;
9128;SDS011;4599;50.906;6.786;2023-03-12T03:49:43;7.50;;;2.00;;
9128;SDS011;4599;50.906;6.786;2023-03-12T03:53:46;3.53;;;2.03;;
9128;SDS011;4599;50.906;6.786;2023-03-12T03:57:48;4.47;;;1.87;;
9128;SDS011;4599;50.906;6.786;2023-03-12T04:01:49;7.37;;;1.90;;
9128;SDS011;4599;50.906;6.786;2023-03-12T04:05:54;8.17;;;1.67;;
9128;SDS011;4599;50.906;6.786;2023-03-12T04:09:56;2.73;;;1.90;;
9128;SDS011;4599;50.906;6.786;2023-03-12T04:13:59;5.70;;;2.13;;
9128;SDS011;4599;50.906;6.786;2023-03-12T04:18:00;5.20;;;2.10;;
9128;SDS011;4599;50.906;6.786;2023-03-12T04:22:03;4.93;;;1.93;;
9128;SDS011;4599;50.906;6.786;2023-03-12T04:26:08;7.10;;;1.87;;
9128;SDS011;4599;50.906;6.786;2023-03-12T04:30:10;6.73;;;1.80;;
9128;SDS011;4599;50.906;6.786;2023-03-12T04:34:12;3.93;;;2.10;;
9128;SDS011;4599;50.906;6.786;2023-03-12T04:38:16;7.77;;;2.10;;
9128;SDS011;4599;50.906;6.786;2023-03-12T04:42:18;8.37;;;2.40;;
9128;SDS011;4599;50.906;6.786;2023-03-12T04:46:19;8.17;;;2.43;;
9128;SDS011;4599;50.906;6.786;2023-03-12T04:50:21;6.07;;;2.50;;
9128;SDS011;4599;50.906;6.786;2023-03-12T04:54:24;3.73;;;1.90;;
9128;SDS011;4599;50.906;6.786;2023-03-12T04:58:25;4.63;;;2.33;;
9128;SDS011;4599;50.906;6.786;2023-03-12T05:02:27;5.40;;;2.63;;
9128;SDS011;4599;50.906;6.786;2023-03-12T05:06:29;3.43;;;1.90;;
9128;SDS011;4599;50.906;6.786;2023-03-12T05:10:32;6.27;;;2.33;;
9128;SDS011;4599;50.906;6.786;2023-03-12T05:14:33;7.90;;;2.40;;
9128;SDS011;4599;50.906;6.786;2023-03-12T05:18:35;7.30;;;2.63;;
9128;SDS011;4599;50.906;6.786;2023-03-12T05:22:37;7.00;;;2.50;;
9128;SDS011;4599;50.906;6.786;2023-03-12T05:26:41;5.77;;;2.63;;
9128;SDS011;4599;50.906;6.786;2023-03-12T05:30:43;6.30;;;2.77;;
9128;SDS011;4599;50.906;6.786;2023-03-12T05:34:44;7.93;;;2.50;;
9128;SDS011;4599;50.906;6.786;2023-03-12T05:38:47;8.27;;;2.50;;
9128;SDS011;4599;50.906;6.786;2023-03-12T05:42:50;4.00;;;2.53;;
9128;SDS011;4599;50.906;6.786;2023-03-12T05:46:53;5.90;;;2.37;;
9128;SDS011;4599;50.906;6.786;2023-03-12T05:50:59;3.67;;;2.07;;
9128;SDS011;4599;50.906;6.786;2023-03-12T05:55:00;4.33;;;2.13;;
9128;SDS011;4599;50.906;6.786;2023-03-12T05:59:03;8.17;;;2.30;;
9128;SDS011;4599;50.906;6.786;2023-03-12T06:03:06;8.00;;;2.37;;
9128;SDS011;4599;50.906;6.786;2023-03-12T06:07:08;5.13;;;2.53;;
9128;SDS011;4599;50.906;6.786;2023-03-12T06:11:10;11.50;;;3.03;;
9128;SDS011;4599;50.906;6.786;2023-03-12T06:15:14;7.47;;;2.73;;
9128;SDS011;4599;50.906;6.786;2023-03-12T06:19:15;8.53;;;2.70;;
9128;SDS011;4599;50.906;6.786;2023-03-12T06:23:17;6.43;;;2.13;;
9128;SDS011;4599;50.906;6.786;2023-03-12T06:27:21;8.80;;;2.60;;
9128;SDS011;4599;50.906;6.786;2023-03-12T06:31:25;6.20;;;2.70;;
9128;SDS011;4599;50.906;6.786;2023-03-12T06:35:27;6.30;;;2.80;;
9128;SDS011;4599;50.906;6.786;2023-03-12T06:39:28;6.00;;;2.63;;
9128;SDS011;4599;50.906;6.786;2023-03-12T06:43:30;5.73;;;2.60;;
9128;SDS011;4599;50.906;6.786;2023-03-12T06:47:34;7.77;;;3.03;;
9128;SDS011;4599;50.906;6.786;2023-03-12T06:51:37;6.67;;;3.17;;
9128;SDS011;4599;50.906;6.786;2023-03-12T06:55:39;9.70;;;3.60;;
9128;SDS011;4599;50.906;6.786;2023-03-12T06:59:41;6.47;;;4.10;;
9128;SDS011;4599;50.906;6.786;2023-03-12T07:03:44;12.73;;;4.20;;
9128;SDS011;4599;50.906;6.786;2023-03-12T07:07:45;9.80;;;4.00;;
9128;SDS011;4599;50.906;6.786;2023-03-12T07:11:50;9.90;;;4.43;;
9128;SDS011;4599;50.906;6.786;2023-03-12T07:15:51;5.43;;;3.53;;
9128;SDS011;4599;50.906;6.786;2023-03-12T07:19:55;5.33;;;2.83;;
9128;SDS011;4599;50.906;6.786;2023-03-12T07:23:57;6.67;;;3.07;;
9128;SDS011;4599;50.906;6.786;2023-03-12T07:28:00;12.60;;;4.47;;
9128;SDS011;4599;50.906;6.786;2023-03-12T07:32:02;5.17;;;3.07;;
9128;SDS011;4599;50.906;6.786;2023-03-12T07:36:06;4.93;;;3.10;;
9128;SDS011;4599;50.906;6.786;2023-03-12T07:40:09;5.23;;;3.10;;
9128;SDS011;4599;50.906;6.786;2023-03-12T07:44:12;6.00;;;2.90;;
9128;SDS011;4599;50.906;6.786;2023-03-12T07:48:16;4.00;;;2.20;;
9128;SDS011;4599;50.906;6.786;2023-03-12T07:52:20;4.83;;;2.60;;
9128;SDS011;4599;50.906;6.786;2023-03-12T07:56:22;7.33;;;3.20;;
9128;SDS011;4599;50.906;6.786;2023-03-12T08:00:24;6.23;;;3.27;;
9128;SDS011;4599;50.906;6.786;2023-03-12T08:04:26;5.83;;;2.90;;
9128;SDS011;4599;50.906;6.786;2023-03-12T08:08:30;5.63;;;3.13;;
9128;SDS011;4599;50.906;6.786;2023-03-12T08:12:31;5.97;;;2.73;;
9128;SDS011;4599;50.906;6.786;2023-03-12T08:16:34;4.57;;;2.80;;
9128;SDS011;4599;50.906;6.786;2023-03-12T08:20:36;6.87;;;3.43;;
9128;SDS011;4599;50.906;6.786;2023-03-12T08:24:39;6.73;;;3.00;;
9128;SDS011;4599;50.906;6.786;2023-03-12T08:28:41;5.93;;;3.00;;
9128;SDS011;4599;50.906;6.786;2023-03-12T08:32:42;4.87;;;3.20;;
9128;SDS011;4599;50.906;6.786;2023-03-12T08:36:44;8.43;;;3.07;;
9128;SDS011;4599;50.906;6.786;2023-03-12T08:40:56;4.27;;;3.60;;
9128;SDS011;4599;50.906;6.786;2023-03-12T08:45:00;6.00;;;3.63;;
9128;SDS011;4599;50.906;6.786;2023-03-12T08:49:03;6.03;;;3.50;;
9128;SDS011;4599;50.906;6.786;2023-03-12T08:53:04;5.83;;;4.00;;
9128;SDS011;4599;50.906;6.786;2023-03-12T08:57:08;4.17;;;3.77;;
9128;SDS011;4599;50.906;6.786;2023-03-12T09:01:10;6.43;;;4.10;;
9128;SDS011;4599;50.906;6.786;2023-03-12T09:05:13;7.40;;;4.33;;
9128;SDS011;4599;50.906;6.786;2023-03-12T09:09:15;5.30;;;4.30;;
9128;SDS011;4599;50.906;6.786;2023-03-12T09:13:18;7.67;;;4.30;;
9128;SDS011;4599;50.906;6.786;2023-03-12T09:17:19;7.30;;;4.87;;
9128;SDS011;4599;50.906;6.786;2023-03-12T09:21:20;5.33;;;4.53;;
9128;SDS011;4599;50.906;6.786;2023-03-12T09:25:22;5.43;;;4.20;;
9128;SDS011;4599;50.906;6.786;2023-03-12T09:29:25;5.57;;;4.10;;
9128;SDS011;4599;50.906;6.786;2023-03-12T09:33:28;5.90;;;3.97;;
9128;SDS011;4599;50.906;6.786;2023-03-12T09:37:30;5.73;;;4.07;;
9128;SDS011;4599;50.906;6.786;2023-03-12T09:41:32;4.70;;;4.27;;
9128;SDS011;4599;50.906;6.786;2023-03-12T09:45:40;4.73;;;3.90;;
9128;SDS011;4599;50.906;6.786;2023-03-12T09:49:45;5.87;;;3.67;;
9128;SDS011;4599;50.906;6.786;2023-03-12T09:53:52;5.00;;;3.80;;
9128;SDS011;4599;50.906;6.786;2023-03-12T09:57:55;5.27;;;3.90;;
9128;SDS011;4599;50.906;6.786;2023-03-12T10:02:00;5.67;;;3.33;;
9128;SDS011;4599;50.906;6.786;2023-03-12T10:06:08;4.63;;;3.50;;
9128;SDS011;4599;50.906;6.786;2023-03-12T10:10:26;3.27;;;3.00;;
9128;SDS011;4599;50.906;6.786;2023-03-12T10:14:40;3.50;;;3.20;;
9128;SDS011;4599;50.906;6.786;2023-03-12T10:18:57;7.43;;;5.43;;
9128;SDS011;4599;50.906;6.786;2023-03-12T10:23:15;9.97;;;6.63;;
9128;SDS011;4599;50.906;6.786;2023-03-12T10:27:29;9.97;;;6.37;;
9128;SDS011;4599;50.906;6.786;2023-03-12T10:31:35;5.07;;;2.90;;
9128;SDS011;4599;50.906;6.786;2023-03-12T10:35:45;3.67;;;3.10;;
9128;SDS011;4599;50.906;6.786;2023-03-12T10:39:48;6.60;;;2.80;;
9128;SDS011;4599;50.906;6.786;2023-03-12T10:43:50;7.17;;;3.00;;
9128;SDS011;4599;50.906;6.786;2023-03-12T10:47:53;6.90;;;3.73;;
9128;SDS011;4599;50.906;6.786;2023-03-12T10:52:00;10.40;;;3.90;;
9128;SDS011;4599;50.906;6.786;2023-03-12T10:56:05;12.47;;;5.13;;
9128;SDS011;4599;50.906;6.786;2023-03-12T11:00:08;10.03;;;5.00;;
9128;SDS011;4599;50.906;6.786;2023-03-12T11:04:18;12.83;;;5.70;;
9128;SDS011;4599;50.906;6.786;2023-03-12T11:08:27;11.93;;;5.60;;
9128;SDS011;4599;50.906;6.786;2023-03-12T11:12:30;15.90;;;6.53;;
9128;SDS011;4599;50.906;6.786;2023-03-12T11:16:31;20.90;;;6.83;;
9128;SDS011;4599;50.906;6.786;2023-03-12T11:20:33;19.10;;;7.07;;
9128;SDS011;4599;50.906;6.786;2023-03-12T11:24:37;18.30;;;7.07;;
9128;SDS011;4599;50.906;6.786;2023-03-12T11:28:58;15.53;;;6.80;;
9128;SDS011;4599;50.906;6.786;2023-03-12T11:33:03;15.43;;;6.70;;
9128;SDS011;4599;50.906;6.786;2023-03-12T11:37:06;17.17;;;6.70;;
9128;SDS011;4599;50.906;6.786;2023-03-12T11:41:20;17.27;;;6.70;;
9128;SDS011;4599;50.906;6.786;2023-03-12T11:45:33;13.37;;;5.90;;
9128;SDS011;4599;50.906;6.786;2023-03-12T11:49:47;11.87;;;5.57;;
9128;SDS011;4599;50.906;6.786;2023-03-12T11:54:05;15.33;;;6.13;;
9128;SDS011;4599;50.906;6.786;2023-03-12T12:07:43;14.60;;;6.03;;
9128;SDS011;4599;50.906;6.786;2023-03-12T12:11:57;17.97;;;6.43;;
9128;SDS011;4599;50.906;6.786;2023-03-12T12:16:16;17.70;;;5.97;;
9128;SDS011;4599;50.906;6.786;2023-03-12T12:20:27;14.43;;;4.80;;
9128;SDS011;4599;50.906;6.786;2023-03-12T12:24:41;14.03;;;4.23;;
9128;SDS011;4599;50.906;6.786;2023-03-12T12:28:58;15.90;;;4.50;;
9128;SDS011;4599;50.906;6.786;2023-03-12T12:33:18;12.77;;;3.90;;
9128;SDS011;4599;50.906;6.786;2023-03-12T12:37:39;16.10;;;3.90;;
9128;SDS011;4599;50.906;6.786;2023-03-12T12:41:49;13.00;;;3.57;;
9128;SDS011;4599;50.906;6.786;2023-03-12T12:45:54;15.97;;;3.60;;
9128;SDS011;4599;50.906;6.786;2023-03-12T12:50:00;14.50;;;3.73;;
9128;SDS011;4599;50.906;6.786;2023-03-12T12:54:04;17.13;;;3.67;;
9128;SDS011;4599;50.906;6.786;2023-03-12T12:58:14;14.10;;;3.43;;
9128;SDS011;4599;50.906;6.786;2023-03-12T13:02:22;17.87;;;3.53;;
9128;SDS011;4599;50.906;6.786;2023-03-12T13:06:30;15.90;;;3.37;;
9128;SDS011;4599;50.906;6.786;2023-03-12T13:10:55;12.57;;;3.47;;
9128;SDS011;4599;50.906;6.786;2023-03-12T13:15:32;15.57;;;3.40;;
9128;SDS011;4599;50.906;6.786;2023-03-12T13:19:39;16.07;;;3.60;;
9128;SDS011;4599;50.906;6.786;2023-03-12T13:23:48;18.70;;;4.17;;
9128;SDS011;4599;50.906;6.786;2023-03-12T13:27:58;16.90;;;3.50;;
9128;SDS011;4599;50.906;6.786;2023-03-12T13:32:01;14.83;;;3.80;;
9128;SDS011;4599;50.906;6.786;2023-03-12T13:36:04;14.30;;;3.37;;
9128;SDS011;4599;50.906;6.786;2023-03-12T13:44:37;16.83;;;3.70;;
9128;SDS011;4599;50.906;6.786;2023-03-12T13:48:42;18.73;;;3.57;;
9128;SDS011;4599;50.906;6.786;2023-03-12T13:52:46;17.00;;;3.27;;
9128;SDS011;4599;50.906;6.786;2023-03-12T13:56:54;18.17;;;3.53;;
9128;SDS011;4599;50.906;6.786;2023-03-12T14:00:59;19.23;;;3.80;;
9128;SDS011;4599;50.906;6.786;2023-03-12T14:05:03;16.43;;;3.97;;
9128;SDS011;4599;50.906;6.786;2023-03-12T14:09:11;16.40;;;3.83;;
9128;SDS011;4599;50.906;6.786;2023-03-12T14:13:34;15.43;;;3.07;;
9128;SDS011;4599;50.906;6.786;2023-03-12T14:17:45;17.53;;;3.50;;
9128;SDS011;4599;50.906;6.786;2023-03-12T14:21:59;19.90;;;4.20;;
9128;SDS011;4599;50.906;6.786;2023-03-12T14:26:03;18.03;;;3.63;;
9128;SDS011;4599;50.906;6.786;2023-03-12T14:30:09;17.00;;;3.93;;
9128;SDS011;4599;50.906;6.786;2023-03-12T14:34:14;14.77;;;3.70;;
9128;SDS011;4599;50.906;6.786;2023-03-12T14:38:19;15.50;;;3.77;;
9128;SDS011;4599;50.906;6.786;2023-03-12T14:42:27;18.57;;;4.03;;
9128;SDS011;4599;50.906;6.786;2023-03-12T14:46:31;21.03;;;3.43;;
9128;SDS011;4599;50.906;6.786;2023-03-12T14:50:35;16.70;;;3.70;;
9128;SDS011;4599;50.906;6.786;2023-03-12T14:54:38;19.70;;;4.13;;
9128;SDS011;4599;50.906;6.786;2023-03-12T14:58:43;11.67;;;3.47;;
9128;SDS011;4599;50.906;6.786;2023-03-12T15:02:48;16.37;;;3.50;;
9128;SDS011;4599;50.906;6.786;2023-03-12T15:06:51;17.53;;;4.10;;
9128;SDS011;4599;50.906;6.786;2023-03-12T15:10:56;13.77;;;3.43;;
9128;SDS011;4599;50.906;6.786;2023-03-12T15:15:00;15.10;;;4.20;;
9128;SDS011;4599;50.906;6.786;2023-03-12T15:19:08;17.80;;;3.40;;
9128;SDS011;4599;50.906;6.786;2023-03-12T15:23:13;10.30;;;3.20;;
9128;SDS011;4599;50.906;6.786;2023-03-12T15:31:41;18.27;;;3.73;;
9128;SDS011;4599;50.906;6.786;2023-03-12T15:35:58;20.07;;;4.10;;
9128;SDS011;4599;50.906;6.786;2023-03-12T15:40:03;20.60;;;4.03;;
9128;SDS011;4599;50.906;6.786;2023-03-12T15:44:11;24.37;;;4.47;;
9128;SDS011;4599;50.906;6.786;2023-03-12T15:48:21;20.57;;;4.50;;
9128;SDS011;4599;50.906;6.786;2023-03-12T15:52:29;18.90;;;3.67;;
9128;SDS011;4599;50.906;6.786;2023-03-12T15:56:34;21.03;;;4.53;;
9128;SDS011;4599;50.906;6.786;2023-03-12T16:00:40;22.30;;;4.27;;
9128;SDS011;4599;50.906;6.786;2023-03-12T16:04:43;23.17;;;4.33;;
9128;SDS011;4599;50.906;6.786;2023-03-12T16:08:46;17.77;;;3.90;;
9128;SDS011;4599;50.906;6.786;2023-03-12T16:12:56;18.27;;;3.80;;
9128;SDS011;4599;50.906;6.786;2023-03-12T16:17:01;18.17;;;3.93;;
9128;SDS011;4599;50.906;6.786;2023-03-12T16:21:03;22.40;;;4.10;;
9128;SDS011;4599;50.906;6.786;2023-03-12T16:25:06;22.90;;;4.50;;
9128;SDS011;4599;50.906;6.786;2023-03-12T16:29:13;21.63;;;4.53;;
9128;SDS011;4599;50.906;6.786;2023-03-12T16:33:16;19.67;;;4.03;;
9128;SDS011;4599;50.906;6.786;2023-03-12T16:37:19;21.83;;;4.33;;
9128;SDS011;4599;50.906;6.786;2023-03-12T16:41:21;18.00;;;4.10;;
9128;SDS011;4599;50.906;6.786;2023-03-12T16:45:23;20.70;;;4.43;;
9128;SDS011;4599;50.906;6.786;2023-03-12T16:49:24;22.70;;;4.60;;
9128;SDS011;4599;50.906;6.786;2023-03-12T16:53:26;19.90;;;4.30;;
9128;SDS011;4599;50.906;6.786;2023-03-12T16:57:30;24.03;;;4.40;;
9128;SDS011;4599;50.906;6.786;2023-03-12T17:01:34;20.70;;;4.40;;
9128;SDS011;4599;50.906;6.786;2023-03-12T17:05:36;18.70;;;3.80;;
9128;SDS011;4599;50.906;6.786;2023-03-12T17:09:37;16.07;;;3.90;;
9128;SDS011;4599;50.906;6.786;2023-03-12T17:13:40;18.90;;;4.33;;
9128;SDS011;4599;50.906;6.786;2023-03-12T17:17:42;17.90;;;4.27;;
9128;SDS011;4599;50.906;6.786;2023-03-12T17:21:43;19.37;;;3.83;;
9128;SDS011;4599;50.906;6.786;2023-03-12T17:25:46;18.97;;;4.47;;
9128;SDS011;4599;50.906;6.786;2023-03-12T17:29:48;19.13;;;4.03;;
9128;SDS011;4599;50.906;6.786;2023-03-12T17:33:50;19.73;;;4.07;;
9128;SDS011;4599;50.906;6.786;2023-03-12T17:37:52;21.60;;;4.23;;
9128;SDS011;4599;50.906;6.786;2023-03-12T17:41:54;19.87;;;4.17;;
9128;SDS011;4599;50.906;6.786;2023-03-12T17:45:57;19.47;;;4.20;;
9128;SDS011;4599;50.906;6.786;2023-03-12T17:50:03;20.37;;;3.67;;
9128;SDS011;4599;50.906;6.786;2023-03-12T17:54:06;24.43;;;4.17;;
9128;SDS011;4599;50.906;6.786;2023-03-12T17:58:08;21.23;;;4.33;;
9128;SDS011;4599;50.906;6.786;2023-03-12T18:02:11;26.00;;;4.27;;
9128;SDS011;4599;50.906;6.786;2023-03-12T18:06:13;18.73;;;4.43;;
9128;SDS011;4599;50.906;6.786;2023-03-12T18:10:15;18.87;;;4.03;;
9128;SDS011;4599;50.906;6.786;2023-03-12T18:14:17;21.57;;;4.23;;
9128;SDS011;4599;50.906;6.786;2023-03-12T18:18:20;16.20;;;4.07;;
9128;SDS011;4599;50.906;6.786;2023-03-12T18:22:22;21.73;;;4.70;;
9128;SDS011;4599;50.906;6.786;2023-03-12T18:26:24;17.53;;;4.30;;
9128;SDS011;4599;50.906;6.786;2023-03-12T18:30:25;22.03;;;4.50;;
9128;SDS011;4599;50.906;6.786;2023-03-12T18:34:28;19.07;;;4.80;;
9128;SDS011;4599;50.906;6.786;2023-03-12T18:38:30;17.10;;;4.07;;
9128;SDS011;4599;50.906;6.786;2023-03-12T18:42:33;19.70;;;3.80;;
9128;SDS011;4599;50.906;6.786;2023-03-12T18:46:35;23.67;;;4.50;;
9128;SDS011;4599;50.906;6.786;2023-03-12T18:50:38;17.73;;;4.30;;
9128;SDS011;4599;50.906;6.786;2023-03-12T18:54:39;19.97;;;4.67;;
9128;SDS011;4599;50.906;6.786;2023-03-12T18:58:41;19.37;;;3.83;;
9128;SDS011;4599;50.906;6.786;2023-03-12T19:02:43;23.40;;;4.10;;
9128;SDS011;4599;50.906;6.786;2023-03-12T19:06:49;15.00;;;3.37;;
9128;SDS011;4599;50.906;6.786;2023-03-12T19:10:52;15.47;;;3.93;;
9128;SDS011;4599;50.906;6.786;2023-03-12T19:14:53;15.23;;;3.73;;
9128;SDS011;4599;50.906;6.786;2023-03-12T19:19:03;19.10;;;4.10;;
9128;SDS011;4599;50.906;6.786;2023-03-12T19:23:06;18.53;;;4.10;;
9128;SDS011;4599;50.906;6.786;2023-03-12T19:27:08;19.00;;;4.07;;
9128;SDS011;4599;50.906;6.786;2023-03-12T19:31:10;23.17;;;4.87;;
9128;SDS011;4599;50.906;6.786;2023-03-12T19:35:13;18.87;;;4.07;;
9128;SDS011;4599;50.906;6.786;2023-03-12T19:39:16;19.17;;;4.07;;
9128;SDS011;4599;50.906;6.786;2023-03-12T19:43:22;19.23;;;4.10;;
9128;SDS011;4599;50.906;6.786;2023-03-12T19:47:24;21.97;;;4.07;;
9128;SDS011;4599;50.906;6.786;2023-03-12T19:51:28;21.10;;;4.03;;
9128;SDS011;4599;50.906;6.786;2023-03-12T19:55:31;21.27;;;3.50;;
9128;SDS011;4599;50.906;6.786;2023-03-12T19:59:34;25.10;;;4.17;;
9128;SDS011;4599;50.906;6.786;2023-03-12T20:03:38;15.97;;;4.23;;
9128;SDS011;4599;50.906;6.786;2023-03-12T20:07:43;18.60;;;4.50;;
9128;SDS011;4599;50.906;6.786;2023-03-12T20:11:47;17.63;;;4.07;;
9128;SDS011;4599;50.906;6.786;2023-03-12T20:15:49;18.73;;;3.90;;
9128;SDS011;4599;50.906;6.786;2023-03-12T20:19:50;20.47;;;4.40;;
9128;SDS011;4599;50.906;6.786;2023-03-12T20:23:53;16.10;;;4.17;;
9128;SDS011;4599;50.906;6.786;2023-03-12T20:27:57;16.30;;;4.23;;
9128;SDS011;4599;50.906;6.786;2023-03-12T20:31:58;15.50;;;3.70;;
9128;SDS011;4599;50.906;6.786;2023-03-12T20:36:02;16.87;;;4.00;;
9128;SDS011;4599;50.906;6.786;2023-03-12T20:40:05;18.33;;;3.67;;
9128;SDS011;4599;50.906;6.786;2023-03-12T20:44:10;18.67;;;3.67;;
9128;SDS011;4599;50.906;6.786;2023-03-12T20:48:11;20.97;;;4.23;;
9128;SDS011;4599;50.906;6.786;2023-03-12T20:52:16;17.00;;;3.63;;
9128;SDS011;4599;50.906;6.786;2023-03-12T20:56:18;18.93;;;3.70;;
9128;SDS011;4599;50.906;6.786;2023-03-12T21:00:23;18.40;;;4.10;;
9128;SDS011;4599;50.906;6.786;2023-03-12T21:04:25;19.67;;;4.23;;
9128;SDS011;4599;50.906;6.786;2023-03-12T21:08:27;14.13;;;3.60;;
9128;SDS011;4599;50.906;6.786;2023-03-12T21:12:29;21.20;;;4.33;;
9128;SDS011;4599;50.906;6.786;2023-03-12T21:16:32;20.07;;;4.37;;
9128;SDS011;4599;50.906;6.786;2023-03-12T21:20:35;17.37;;;3.67;;
9128;SDS011;4599;50.906;6.786;2023-03-12T21:24:37;19.57;;;3.97;;
9128;SDS011;4599;50.906;6.786;2023-03-12T21:28:38;14.13;;;3.60;;
9128;SDS011;4599;50.906;6.786;2023-03-12T21:32:41;15.47;;;4.30;;
9128;SDS011;4599;50.906;6.786;2023-03-12T21:36:43;15.90;;;3.60;;
9128;SDS011;4599;50.906;6.786;2023-03-12T21:40:44;19.00;;;3.83;;
9128;SDS011;4599;50.906;6.786;2023-03-12T21:44:46;16.83;;;4.07;;
9128;SDS011;4599;50.906;6.786;2023-03-12T21:48:53;19.63;;;4.33;;
9128;SDS011;4599;50.906;6.786;2023-03-12T21:52:56;18.80;;;4.10;;
9128;SDS011;4599;50.906;6.786;2023-03-12T21:56:57;19.60;;;4.10;;
9128;SDS011;4599;50.906;6.786;2023-03-12T22:01:03;14.93;;;3.53;;
9128;SDS011;4599;50.906;6.786;2023-03-12T22:05:09;13.87;;;3.63;;
9128;SDS011;4599;50.906;6.786;2023-03-12T22:09:14;19.70;;;3.60;;
9128;SDS011;4599;50.906;6.786;2023-03-12T22:13:15;13.80;;;3.40;;
9128;SDS011;4599;50.906;6.786;2023-03-12T22:17:17;17.67;;;3.90;;
9128;SDS011;4599;50.906;6.786;2023-03-12T22:21:21;15.43;;;3.57;;
9128;SDS011;4599;50.906;6.786;2023-03-12T22:25:24;15.07;;;3.87;;
9128;SDS011;4599;50.906;6.786;2023-03-12T22:29:25;13.60;;;3.10;;
9128;SDS011;4599;50.906;6.786;2023-03-12T22:33:27;14.17;;;3.30;;
9128;SDS011;4599;50.906;6.786;2023-03-12T22:37:30;14.63;;;3.30;;
9128;SDS011;4599;50.906;6.786;2023-03-12T22:41:33;11.23;;;3.20;;
9128;SDS011;4599;50.906;6.786;2023-03-12T22:45:34;15.47;;;3.33;;
9128;SDS011;4599;50.906;6.786;2023-03-12T22:49:36;12.97;;;3.43;;
9128;SDS011;4599;50.906;6.786;2023-03-12T22:53:39;14.43;;;3.40;;
9128;SDS011;4599;50.906;6.786;2023-03-12T22:57:42;16.33;;;3.20;;
9128;SDS011;4599;50.906;6.786;2023-03-12T23:01:44;11.90;;;3.50;;
9128;SDS011;4599;50.906;6.786;2023-03-12T23:05:46;17.23;;;3.90;;
9128;SDS011;4599;50.906;6.786;2023-03-12T23:09:49;17.17;;;3.70;;
9128;SDS011;4599;50.906;6.786;2023-03-12T23:13:51;15.97;;;3.37;;
9128;SDS011;4599;50.906;6.786;2023-03-12T23:17:53;15.63;;;3.30;;
9128;SDS011;4599;50.906;6.786;2023-03-12T23:21:55;15.03;;;3.40;;
9128;SDS011;4599;50.906;6.786;2023-03-12T23:25:58;16.80;;;3.40;;
9128;SDS011;4599;50.906;6.786;2023-03-12T23:30:00;20.80;;;3.90;;
9128;SDS011;4599;50.906;6.786;2023-03-12T23:34:02;16.23;;;3.50;;
9128;SDS011;4599;50.906;6.786;2023-03-12T23:38:04;17.77;;;3.90;;
9128;SDS011;4599;50.906;6.786;2023-03-12T23:42:08;18.23;;;3.70;;
9128;SDS011;4599;50.906;6.786;2023-03-12T23:46:10;15.73;;;3.27;;
9128;SDS011;4599;50.906;6.786;2023-03-12T23:50:12;13.23;;;3.53;;
9128;SDS011;4599;50.906;6.786;2023-03-12T23:54:16;18.07;;;3.87;;
9128;SDS011;4599;50.906;6.786;2023-03-12T23:58:19;15.60;;;3.37;;
